Abakan, Russia

5:36 AM KRAT on August 01, 2014 (GMT +0800)
Abakan (UNAA) Elev 804 ft | 53.74 °N, 91.39 °E | Change Station

Current weather conditions updated 36 minutes ago

Overcast
Overcast
54 °F
Feels Like 54 °F
N
4
Wind Variable Wind from Variable

Today is forecast to be Cooler than yesterday. Showers possible in the afternoon.

Today
High -- | Low -- °F
--% Chance of Precip.
Yesterday
High -- | Low -- °F
Precip. -- in
6:08 AM 9:52 PM
Waxing Crescent, 21% visible
Pressure 29.92 in
Visibility 6.2 miles
Clouds Scattered Clouds 2600 ft
Overcast 10000 ft
Dew Point 50 °F
Humidity 88%
Rainfall 0.00 in
Snow Depth Not available.
UV 0 out of 12
Pollen Not available.
Air Quality Not available.
Flu Activity Not available.
METAR UNAA 312100Z VRB02MPS 9999 SCT026CB OVC100 12/10 Q1013 NOSIG RMK QFE737 20090065

More Conditions Fewer Conditions

Pressure 29.92 in
Visibility 6.2 miles
Clouds Scattered Clouds 2600 ft
Overcast 10000 ft
Dew Point 50 °F
Humidity 88%
Rainfall 0.00 in
Snow Depth Not available.
UV 0 out of 12
Pollen Not available.
Air Quality Not available.
Flu Activity Not available.
METAR UNAA 312100Z VRB02MPS 9999 SCT026CB OVC100 12/10 Q1013 NOSIG RMK QFE737 20090065

More Conditions Fewer Conditions

10-Day Weather Forecast

Almanac

Astronomy

Aug. 01, 2014 Rise Set
Actual Time 6:08 AM KRAT 9:52 PM KRAT
Civil Twilight 5:24 AM KRAT 10:36 PM KRAT
Nautical Twilight 4:22 AM KRAT 11:37 PM KRAT
Astronomical Twilight 2:21 AM KRAT 1:26 AM KRAT
Moon 11:55 AM KRAT (8/1) 11:25 PM KRAT (8/1)
Length of Visible Light 17h 11m
Length of Day
15h 43m
Tomorrow will be 3m 28s shorter.
Waxing Crescent, 21% of the Moon is Illuminated
Jul 31
Waxing Crescent
Aug 3
First Quarter
Aug 10
Full
Aug 17
Last Quarter
Aug 25
New

Yesterday's Extremes

Country Highs Country Lows

Community

WunderPhotos

Upload Photos

1,739,454 photos uploaded!

Nearby

Snow Depth

Not available.

Earthquake Activity

City Distance Mag. Time & Date
No recent earthquake activity has been reported nearby.
Minimum magnitude displayed is 2.5.

Coastal Water Temperatures

Place Temperature
No Stations Reporting

Nearby Weather Stations

There are no personal weather stations in this area.